createdAt,value
2024-02-04T00:00:19.557Z,1.97
2024-02-04T00:02:47.676Z,1.10
2024-02-04T00:05:16.286Z,1.17
2024-02-04T00:07:45.685Z,1.63
2024-02-04T00:10:13.841Z,1.70
2024-02-04T00:12:41.921Z,2.50
2024-02-04T00:15:10.650Z,1.70
2024-02-04T00:17:38.804Z,2.03
2024-02-04T00:20:08.878Z,2.33
2024-02-04T00:22:36.914Z,2.30
2024-02-04T00:25:07.131Z,2.40
2024-02-04T00:27:35.528Z,3.03
2024-02-04T00:30:03.700Z,2.20
2024-02-04T00:32:31.791Z,2.57
2024-02-04T00:34:59.912Z,2.30
2024-02-04T00:37:27.992Z,2.40
2024-02-04T00:39:56.127Z,2.83
2024-02-04T00:42:25.660Z,2.63
2024-02-04T00:44:53.698Z,8.93
2024-02-04T00:47:22.021Z,4.10
2024-02-04T00:49:50.335Z,2.60
2024-02-04T00:52:18.385Z,2.50
2024-02-04T00:54:46.654Z,2.77
2024-02-04T00:57:14.660Z,3.00
2024-02-04T00:59:44.429Z,3.60
2024-02-04T01:02:12.633Z,2.77
2024-02-04T01:04:41.604Z,3.00
2024-02-04T01:07:09.907Z,2.93
2024-02-04T01:09:38.038Z,2.70
2024-02-04T01:12:06.376Z,2.20
2024-02-04T01:14:34.447Z,2.30
2024-02-04T01:17:03.956Z,2.80
2024-02-04T01:19:32.075Z,2.43
2024-02-04T01:22:00.353Z,2.20
2024-02-04T01:24:28.398Z,2.10
2024-02-04T01:26:56.735Z,2.20
2024-02-04T01:29:24.975Z,2.30
2024-02-04T01:31:53.005Z,2.40
2024-02-04T01:34:22.456Z,2.60
2024-02-04T01:36:50.594Z,2.33
2024-02-04T01:39:18.618Z,2.50
2024-02-04T01:41:46.940Z,2.50
2024-02-04T01:44:16.897Z,2.43
2024-02-04T01:46:45.415Z,2.27
2024-02-04T01:49:13.681Z,2.50
2024-02-04T01:51:43.760Z,3.00
2024-02-04T01:54:11.962Z,2.80
2024-02-04T01:56:40.091Z,2.63
2024-02-04T01:59:08.936Z,2.90
2024-02-04T02:01:37.361Z,3.07
2024-02-04T02:04:07.021Z,3.27
2024-02-04T02:06:36.538Z,3.00
2024-02-04T02:09:07.167Z,3.20
2024-02-04T02:11:42.233Z,3.43
2024-02-04T02:14:15.557Z,2.93
2024-02-04T02:16:46.783Z,2.60
2024-02-04T02:19:33.122Z,2.97
2024-02-04T02:22:08.554Z,3.00
2024-02-04T02:24:41.074Z,3.30
2024-02-04T02:27:10.590Z,2.40
2024-02-04T02:29:38.889Z,2.70
2024-02-04T02:32:07.868Z,2.33
2024-02-04T02:34:39.368Z,2.30
2024-02-04T02:37:18.285Z,2.37
2024-02-04T02:39:57.481Z,2.50
2024-02-04T02:42:27.610Z,2.73
2024-02-04T02:44:56.476Z,2.87
2024-02-04T02:47:25.794Z,2.50
2024-02-04T02:49:55.810Z,2.60
2024-02-04T02:52:24.189Z,2.40
2024-02-04T02:54:53.568Z,2.20
2024-02-04T02:57:21.647Z,2.50
2024-02-04T02:59:49.698Z,2.43
2024-02-04T03:02:17.913Z,2.27
2024-02-04T03:04:46.127Z,2.50
2024-02-04T03:07:14.694Z,2.77
2024-02-04T03:09:42.816Z,3.13
2024-02-04T03:12:13.052Z,2.53
2024-02-04T03:14:41.313Z,3.00
2024-02-04T03:17:09.356Z,2.50
2024-02-04T03:19:38.027Z,2.37
2024-02-04T03:22:06.556Z,3.03
2024-02-04T03:24:34.885Z,2.97
2024-02-04T03:27:03.648Z,2.97
2024-02-04T03:29:33.045Z,3.00
2024-02-04T03:32:01.407Z,2.80
2024-02-04T03:34:29.905Z,2.90
2024-02-04T03:36:58.464Z,4.00
2024-02-04T03:39:27.340Z,4.10
2024-02-04T03:41:55.457Z,4.53
2024-02-04T03:44:23.512Z,4.20
2024-02-04T03:46:53.574Z,8.00
2024-02-04T03:49:21.900Z,4.30
2024-02-04T03:51:50.093Z,5.10
2024-02-04T03:54:20.113Z,5.40
2024-02-04T03:56:48.684Z,5.70
2024-02-04T03:59:16.735Z,7.23
2024-02-04T04:01:49.655Z,7.67
2024-02-04T04:04:19.381Z,7.70
2024-02-04T04:06:49.625Z,7.07
2024-02-04T04:09:17.834Z,7.63
2024-02-04T04:11:45.978Z,7.70
2024-02-04T04:14:14.032Z,7.93
2024-02-04T04:16:42.106Z,8.40
2024-02-04T04:19:10.336Z,7.57
2024-02-04T04:21:41.730Z,8.23
2024-02-04T04:24:10.350Z,9.37
2024-02-04T04:26:38.767Z,8.50
2024-02-04T04:29:06.787Z,8.80
2024-02-04T04:31:34.809Z,11.57
2024-02-04T04:34:03.017Z,8.27
2024-02-04T04:36:31.195Z,9.10
2024-02-04T04:39:00.703Z,8.00
2024-02-04T04:41:28.722Z,9.57
2024-02-04T04:43:58.129Z,9.97
2024-02-04T04:46:26.230Z,10.03
2024-02-04T04:48:54.601Z,10.50
2024-02-04T04:51:22.796Z,11.43
2024-02-04T04:53:50.853Z,12.33
2024-02-04T04:56:20.210Z,10.63
2024-02-04T04:58:48.264Z,11.07
2024-02-04T05:01:16.434Z,10.60
2024-02-04T05:03:44.802Z,11.73
2024-02-04T05:06:12.905Z,10.70
2024-02-04T05:08:40.926Z,10.83
2024-02-04T05:11:09.040Z,14.00
2024-02-04T05:13:40.997Z,9.33
2024-02-04T05:16:09.130Z,13.80
2024-02-04T05:18:37.598Z,10.70
2024-02-04T05:21:06.166Z,12.27
2024-02-04T05:23:34.341Z,12.17
2024-02-04T05:26:05.665Z,11.43
2024-02-04T05:28:34.197Z,11.57
2024-02-04T05:31:05.233Z,11.63
2024-02-04T05:33:33.817Z,10.03
2024-02-04T05:36:01.948Z,13.30
2024-02-04T05:38:29.981Z,10.87
2024-02-04T05:40:58.031Z,11.87
2024-02-04T05:43:26.130Z,12.50
2024-02-04T05:45:54.207Z,12.00
2024-02-04T05:48:23.780Z,12.00
2024-02-04T05:50:51.962Z,14.37
2024-02-04T05:53:20.171Z,12.07
2024-02-04T05:55:49.280Z,9.43
2024-02-04T05:58:17.467Z,11.10
2024-02-04T06:00:45.547Z,8.73
2024-02-04T06:03:13.730Z,12.37
2024-02-04T06:05:43.272Z,11.77
2024-02-04T06:08:11.386Z,14.57
2024-02-04T06:10:39.423Z,16.40
2024-02-04T06:13:07.636Z,9.07
2024-02-04T06:15:37.169Z,11.17
2024-02-04T06:18:05.663Z,8.63
2024-02-04T06:20:33.919Z,11.20
2024-02-04T06:23:03.419Z,11.23
2024-02-04T06:25:31.660Z,8.80
2024-02-04T06:27:59.971Z,9.27
2024-02-04T06:30:29.409Z,8.30
2024-02-04T06:32:57.944Z,10.40
2024-02-04T06:35:26.186Z,12.67
2024-02-04T06:37:54.550Z,9.70
2024-02-04T06:40:24.014Z,6.60
2024-02-04T06:42:52.086Z,7.30
2024-02-04T06:45:20.086Z,8.07
2024-02-04T06:47:48.135Z,10.80
2024-02-04T06:50:17.095Z,7.23
2024-02-04T06:52:46.676Z,6.73
2024-02-04T06:55:15.061Z,7.60
2024-02-04T06:57:44.551Z,7.30
2024-02-04T07:00:14.114Z,6.47
2024-02-04T07:02:42.171Z,6.47
2024-02-04T07:05:11.632Z,6.20
2024-02-04T07:07:39.804Z,6.77
2024-02-04T07:10:09.256Z,5.97
2024-02-04T07:12:37.512Z,4.73
2024-02-04T07:15:07.698Z,8.63
2024-02-04T07:17:36.112Z,4.87
2024-02-04T07:20:04.870Z,6.23
2024-02-04T07:22:35.345Z,5.37
2024-02-04T07:25:05.835Z,4.83
2024-02-04T07:27:34.235Z,4.13
2024-02-04T07:30:04.619Z,5.33
2024-02-04T07:32:35.525Z,4.90
2024-02-04T07:35:04.033Z,4.07
2024-02-04T07:37:32.176Z,3.67
2024-02-04T07:40:02.371Z,3.40
2024-02-04T07:42:30.568Z,4.20
2024-02-04T07:44:59.128Z,5.90
2024-02-04T07:47:27.371Z,5.97
2024-02-04T07:49:57.031Z,3.80
2024-02-04T07:52:25.258Z,4.27
2024-02-04T07:54:53.528Z,4.87
2024-02-04T07:57:21.547Z,5.20
2024-02-04T07:59:49.701Z,4.70
2024-02-04T08:02:17.775Z,4.53
2024-02-04T08:04:45.983Z,4.57
2024-02-04T08:07:15.749Z,5.20
2024-02-04T08:09:43.910Z,6.13
2024-02-04T08:12:11.987Z,5.87
2024-02-04T08:14:40.040Z,4.80
2024-02-04T08:17:08.107Z,5.30
2024-02-04T08:19:36.232Z,7.57
2024-02-04T08:22:05.262Z,6.53
2024-02-04T08:24:34.741Z,28.17
2024-02-04T08:27:02.882Z,10.70
2024-02-04T08:29:30.891Z,5.70
2024-02-04T08:31:58.945Z,5.30
2024-02-04T08:34:27.310Z,5.03
2024-02-04T08:36:55.926Z,5.20
2024-02-04T08:39:24.206Z,5.30
2024-02-04T08:41:53.853Z,4.93
2024-02-04T08:44:31.667Z,6.93
2024-02-04T08:47:04.148Z,5.63
2024-02-04T08:49:32.577Z,5.27
2024-02-04T08:52:00.957Z,5.27
2024-02-04T08:54:29.216Z,5.20
2024-02-04T08:56:58.778Z,4.17
2024-02-04T08:59:26.863Z,5.60
2024-02-04T09:01:55.569Z,6.40
2024-02-04T09:04:24.111Z,5.50
2024-02-04T09:06:52.383Z,4.93
2024-02-04T09:09:20.554Z,6.23
2024-02-04T09:11:48.615Z,4.57
2024-02-04T09:14:18.035Z,4.93
2024-02-04T09:16:46.166Z,4.67
2024-02-04T09:19:14.912Z,4.07
2024-02-04T09:21:43.254Z,4.60
2024-02-04T09:24:12.362Z,4.63
2024-02-04T09:26:40.469Z,5.00
2024-02-04T09:29:08.601Z,4.77
2024-02-04T09:31:38.217Z,5.30
2024-02-04T09:34:06.695Z,4.97
2024-02-04T09:36:36.031Z,6.60
2024-02-04T09:39:04.698Z,5.47
2024-02-04T09:41:32.977Z,4.40
2024-02-04T09:44:04.085Z,5.00
2024-02-04T09:46:32.836Z,4.43
2024-02-04T09:49:04.041Z,3.90
2024-02-04T09:51:32.826Z,4.40
2024-02-04T09:54:07.475Z,3.63
2024-02-04T09:56:37.793Z,5.17
2024-02-04T09:59:06.679Z,6.50
2024-02-04T10:01:35.038Z,4.17
2024-02-04T10:04:04.827Z,4.10
2024-02-04T10:06:34.341Z,4.20
2024-02-04T10:09:03.138Z,4.37
2024-02-04T10:11:31.517Z,4.57
2024-02-04T10:14:00.616Z,4.67
2024-02-04T10:16:28.944Z,4.77
2024-02-04T10:18:57.787Z,5.67
2024-02-04T10:21:27.628Z,4.20
2024-02-04T10:23:56.801Z,3.70
2024-02-04T10:26:31.430Z,7.90
2024-02-04T10:29:00.218Z,4.33
2024-02-04T10:31:28.789Z,4.17
2024-02-04T10:33:57.497Z,4.13
2024-02-04T10:36:26.935Z,4.40
2024-02-04T10:38:55.402Z,5.10
2024-02-04T10:41:24.071Z,4.97
2024-02-04T10:43:55.020Z,4.53
2024-02-04T10:46:26.784Z,4.50
2024-02-04T10:48:59.755Z,6.73
2024-02-04T10:51:29.811Z,6.10
2024-02-04T10:53:58.176Z,5.83
2024-02-04T10:56:32.322Z,7.30
2024-02-04T10:59:03.965Z,7.47
2024-02-04T11:01:32.317Z,4.70
2024-02-04T11:04:01.887Z,4.60
2024-02-04T11:06:33.045Z,4.70
2024-02-04T11:09:02.152Z,5.57
2024-02-04T11:11:30.718Z,4.70
2024-02-04T11:14:06.557Z,4.20
2024-02-04T11:16:56.082Z,5.47
2024-02-04T11:19:38.799Z,4.50
2024-02-04T11:22:23.248Z,6.63
2024-02-04T11:25:05.608Z,5.87
2024-02-04T11:27:33.831Z,4.90
2024-02-04T11:30:02.059Z,6.00
2024-02-04T11:32:30.718Z,4.10
2024-02-04T11:35:02.256Z,4.00
2024-02-04T11:37:33.334Z,4.93
2024-02-04T11:40:01.694Z,4.20
2024-02-04T11:42:34.409Z,3.60
2024-02-04T11:45:14.214Z,5.30
2024-02-04T11:47:43.061Z,3.30
2024-02-04T11:50:12.764Z,4.37
2024-02-04T11:52:43.458Z,3.60
2024-02-04T11:55:17.845Z,5.33
2024-02-04T11:57:46.820Z,3.30
2024-02-04T12:00:18.055Z,3.50
2024-02-04T12:02:46.153Z,4.43
2024-02-04T12:05:15.075Z,3.43
2024-02-04T12:07:45.506Z,6.97
2024-02-04T12:10:14.637Z,3.87
2024-02-04T12:12:42.889Z,5.80
2024-02-04T12:15:12.720Z,4.43
2024-02-04T12:17:41.148Z,3.73
2024-02-04T12:20:10.318Z,3.13
2024-02-04T12:22:38.574Z,3.00
2024-02-04T12:25:09.038Z,3.60
2024-02-04T12:27:37.432Z,3.63
2024-02-04T12:30:07.362Z,2.20
2024-02-04T12:32:35.617Z,2.80
2024-02-04T12:35:03.753Z,3.53
2024-02-04T12:37:31.788Z,3.17
2024-02-04T12:40:00.633Z,3.13
2024-02-04T12:42:30.183Z,3.10
2024-02-04T12:44:59.658Z,3.03
2024-02-04T12:47:29.754Z,2.67
2024-02-04T12:50:03.487Z,2.30
2024-02-04T12:52:35.457Z,3.23
2024-02-04T12:55:03.653Z,2.60
2024-02-04T12:57:34.430Z,4.23
2024-02-04T13:00:11.686Z,2.20
2024-02-04T13:02:40.443Z,2.87
2024-02-04T13:05:09.157Z,4.10
2024-02-04T13:07:37.618Z,3.40
2024-02-04T13:10:06.968Z,2.23
2024-02-04T13:12:40.332Z,5.07
2024-02-04T13:15:09.267Z,3.47
2024-02-04T13:17:37.343Z,2.80
2024-02-04T13:20:06.212Z,2.33
2024-02-04T13:22:34.274Z,3.13
2024-02-04T13:25:02.365Z,2.73
2024-02-04T13:27:30.530Z,5.40
2024-02-04T13:30:00.086Z,3.80
2024-02-04T13:32:28.285Z,7.00
2024-02-04T13:35:05.699Z,2.50
2024-02-04T13:37:42.155Z,2.40
2024-02-04T13:40:11.840Z,2.90
2024-02-04T13:42:40.091Z,3.00
2024-02-04T13:45:10.759Z,3.50
2024-02-04T13:47:39.347Z,3.73
2024-02-04T13:50:09.657Z,3.13
2024-02-04T13:52:38.548Z,3.40
2024-02-04T13:55:08.309Z,3.43
2024-02-04T13:57:37.199Z,6.40
2024-02-04T14:00:07.832Z,3.40
2024-02-04T14:02:37.706Z,3.07
2024-02-04T14:05:07.020Z,2.90
2024-02-04T14:07:35.263Z,5.70
2024-02-04T14:10:03.427Z,3.37
2024-02-04T14:12:32.717Z,5.50
2024-02-04T14:15:00.816Z,4.03
2024-02-04T14:17:28.924Z,7.30
2024-02-04T14:19:59.856Z,4.50
2024-02-04T14:22:28.844Z,4.77
2024-02-04T14:24:57.070Z,6.90
2024-02-04T14:27:25.232Z,2.80
2024-02-04T14:29:53.327Z,3.90
2024-02-04T14:32:21.315Z,6.43
2024-02-04T14:34:49.642Z,8.27
2024-02-04T14:37:19.598Z,7.33
2024-02-04T14:39:47.831Z,5.57
2024-02-04T14:42:16.222Z,13.70
2024-02-04T14:44:44.982Z,6.30
2024-02-04T14:47:12.972Z,6.63
2024-02-04T14:49:41.023Z,7.57
2024-02-04T14:52:09.496Z,5.10
2024-02-04T14:54:39.268Z,3.00
2024-02-04T14:57:07.624Z,4.27
2024-02-04T14:59:38.366Z,3.60
2024-02-04T15:02:06.944Z,2.30
2024-02-04T15:04:36.031Z,2.10
2024-02-04T15:07:05.281Z,2.50
2024-02-04T15:09:34.210Z,2.50
2024-02-04T15:12:04.961Z,1.90
2024-02-04T15:14:33.737Z,2.13
2024-02-04T15:17:03.035Z,2.33
2024-02-04T15:19:33.662Z,2.57
2024-02-04T15:22:02.562Z,1.80
2024-02-04T15:24:31.313Z,3.47
2024-02-04T15:27:05.464Z,3.27
2024-02-04T15:29:37.423Z,4.23
2024-02-04T15:32:06.703Z,3.93
2024-02-04T15:34:36.327Z,2.90
2024-02-04T15:37:05.019Z,2.07
2024-02-04T15:39:34.665Z,2.00
2024-02-04T15:42:02.914Z,1.20
2024-02-04T15:44:31.094Z,2.67
2024-02-04T15:47:03.493Z,2.80
2024-02-04T15:49:31.942Z,2.30
2024-02-04T15:52:00.820Z,2.90
2024-02-04T15:54:29.742Z,1.97
2024-02-04T15:57:03.897Z,5.30
2024-02-04T15:59:42.922Z,2.93
2024-02-04T16:02:13.104Z,1.93
2024-02-04T16:04:42.087Z,2.30
2024-02-04T16:07:12.439Z,6.00
2024-02-04T16:09:42.130Z,2.60
2024-02-04T16:12:11.556Z,3.00
2024-02-04T16:14:44.009Z,2.10
2024-02-04T16:17:18.066Z,3.23
2024-02-04T16:19:47.588Z,2.60
2024-02-04T16:22:16.783Z,2.60
2024-02-04T16:24:45.454Z,2.43
2024-02-04T16:27:14.462Z,1.67
2024-02-04T16:29:43.173Z,1.10
2024-02-04T16:32:12.317Z,1.30
2024-02-04T16:34:42.212Z,1.20
2024-02-04T16:37:11.227Z,1.63
2024-02-04T16:39:39.953Z,1.27
2024-02-04T16:42:09.894Z,1.10
2024-02-04T16:44:38.212Z,1.30
2024-02-04T16:47:06.578Z,1.43
2024-02-04T16:49:34.817Z,9.47
2024-02-04T16:52:04.995Z,2.37
2024-02-04T16:54:33.132Z,1.90
2024-02-04T16:57:03.356Z,1.57
2024-02-04T16:59:31.735Z,3.13
2024-02-04T17:02:00.055Z,1.93
2024-02-04T17:04:28.914Z,2.87
2024-02-04T17:06:57.616Z,5.20
2024-02-04T17:09:27.889Z,2.20
2024-02-04T17:11:58.626Z,3.23
2024-02-04T17:14:27.303Z,2.07
2024-02-04T17:17:04.123Z,2.43
2024-02-04T17:19:42.218Z,1.50
2024-02-04T17:22:16.571Z,1.50
2024-02-04T17:24:51.055Z,2.27
2024-02-04T17:27:20.344Z,2.43
2024-02-04T17:29:51.217Z,1.83
2024-02-04T17:32:26.191Z,1.63
2024-02-04T17:34:55.767Z,2.80
2024-02-04T17:37:23.933Z,4.00
2024-02-04T17:39:53.432Z,3.00
2024-02-04T17:42:21.575Z,4.20
2024-02-04T17:44:50.369Z,4.43
2024-02-04T17:47:18.398Z,2.57
2024-02-04T17:49:48.368Z,2.40
2024-02-04T17:52:17.153Z,4.73
2024-02-04T17:54:46.190Z,3.17
2024-02-04T17:57:15.951Z,3.10
2024-02-04T17:59:44.152Z,2.17
2024-02-04T18:02:13.154Z,3.97
2024-02-04T18:04:41.481Z,8.00
2024-02-04T18:07:11.087Z,2.63
2024-02-04T18:09:42.571Z,4.40
2024-02-04T18:12:10.818Z,4.63
2024-02-04T18:14:41.399Z,4.93
2024-02-04T18:17:09.576Z,7.67
2024-02-04T18:19:37.845Z,3.07
2024-02-04T18:22:06.230Z,4.00
2024-02-04T18:24:38.396Z,8.53
2024-02-04T18:27:06.987Z,4.80
2024-02-04T18:29:35.493Z,5.13
2024-02-04T18:32:05.886Z,3.60
2024-02-04T18:34:34.262Z,8.93
2024-02-04T18:37:02.683Z,11.50
2024-02-04T18:39:31.805Z,7.20
2024-02-04T18:42:00.451Z,2.73
2024-02-04T18:44:28.994Z,6.33
2024-02-04T18:46:57.074Z,4.83
2024-02-04T18:49:27.919Z,5.93
2024-02-04T18:51:56.263Z,3.47
2024-02-04T18:54:25.528Z,5.60
2024-02-04T18:56:53.698Z,2.70
2024-02-04T18:59:21.956Z,5.70
2024-02-04T19:01:50.869Z,11.47
2024-02-04T19:04:19.967Z,3.13
2024-02-04T19:06:51.054Z,6.33
2024-02-04T19:09:19.221Z,2.40
2024-02-04T19:11:48.377Z,2.60
2024-02-04T19:14:21.068Z,5.57
2024-02-04T19:16:49.597Z,5.63
2024-02-04T19:19:17.771Z,3.33
2024-02-04T19:21:47.515Z,4.33
2024-02-04T19:24:18.564Z,4.83
2024-02-04T19:26:48.081Z,3.10
2024-02-04T19:29:17.420Z,3.70
2024-02-04T19:31:46.525Z,4.40
2024-02-04T19:34:14.841Z,3.30
2024-02-04T19:36:45.688Z,9.10
2024-02-04T19:39:17.268Z,4.00
2024-02-04T19:41:45.502Z,2.80
2024-02-04T19:44:13.694Z,8.70
2024-02-04T19:46:42.046Z,7.90
2024-02-04T19:49:11.780Z,3.17
2024-02-04T19:51:40.135Z,3.70
2024-02-04T19:54:08.251Z,4.83
2024-02-04T19:56:38.864Z,4.27
2024-02-04T19:59:07.875Z,5.80
2024-02-04T20:01:36.119Z,4.07
2024-02-04T20:04:04.505Z,3.37
2024-02-04T20:06:32.957Z,3.07
2024-02-04T20:09:01.434Z,1.97
2024-02-04T20:11:33.511Z,1.67
2024-02-04T20:14:04.737Z,1.63
2024-02-04T20:16:33.044Z,1.87
2024-02-04T20:19:05.010Z,2.53
2024-02-04T20:21:35.686Z,2.70
2024-02-04T20:24:05.447Z,3.53
2024-02-04T20:26:33.951Z,3.63
2024-02-04T20:29:04.142Z,2.10
2024-02-04T20:31:32.380Z,3.40
2024-02-04T20:34:01.079Z,2.07
2024-02-04T20:36:29.301Z,3.33
2024-02-04T20:38:57.504Z,2.43
2024-02-04T20:41:25.959Z,2.60
2024-02-04T20:43:55.123Z,2.50
2024-02-04T20:46:25.050Z,1.73
2024-02-04T20:48:53.466Z,5.43
2024-02-04T20:51:24.173Z,2.30
2024-02-04T20:53:54.161Z,1.93
2024-02-04T20:56:22.441Z,2.70
2024-02-04T20:58:50.535Z,3.50
2024-02-04T21:01:19.200Z,2.10
2024-02-04T21:03:48.743Z,2.17
2024-02-04T21:06:18.426Z,2.10
2024-02-04T21:08:46.896Z,1.50
2024-02-04T21:11:21.904Z,1.87
2024-02-04T21:13:50.254Z,1.43
2024-02-04T21:16:19.146Z,1.23
2024-02-04T21:18:49.140Z,1.97
2024-02-04T21:21:17.501Z,2.60
2024-02-04T21:23:46.387Z,1.70
2024-02-04T21:26:14.677Z,3.73
2024-02-04T21:28:44.100Z,4.57
2024-02-04T21:31:13.158Z,4.53
2024-02-04T21:33:42.738Z,1.70
2024-02-04T21:36:12.978Z,5.40
2024-02-04T21:38:41.609Z,1.30
2024-02-04T21:41:09.667Z,3.13
2024-02-04T21:43:37.851Z,4.83
2024-02-04T21:46:06.177Z,4.10
2024-02-04T21:48:34.461Z,2.30
2024-02-04T21:51:04.533Z,2.23
2024-02-04T21:53:33.994Z,3.53
2024-02-04T21:56:02.420Z,1.90
2024-02-04T21:58:31.027Z,2.10
2024-02-04T22:00:59.821Z,1.70
2024-02-04T22:03:27.977Z,2.80
2024-02-04T22:05:56.139Z,1.70
2024-02-04T22:08:24.690Z,2.50
2024-02-04T22:10:54.188Z,3.77
2024-02-04T22:13:22.360Z,5.13
2024-02-04T22:15:50.560Z,4.60
2024-02-04T22:18:18.907Z,3.10
2024-02-04T22:20:47.104Z,5.53
2024-02-04T22:23:15.599Z,3.83
2024-02-04T22:25:43.654Z,3.77
2024-02-04T22:28:13.353Z,4.20
2024-02-04T22:30:43.808Z,3.70
2024-02-04T22:33:12.084Z,5.10
2024-02-04T22:35:40.182Z,5.47
2024-02-04T22:38:08.271Z,4.00
2024-02-04T22:40:36.545Z,4.40
2024-02-04T22:43:05.366Z,6.47
2024-02-04T22:45:34.877Z,4.40
2024-02-04T22:48:03.518Z,9.73
2024-02-04T22:50:32.490Z,6.23
2024-02-04T22:53:00.544Z,6.70
2024-02-04T22:55:28.677Z,5.40
2024-02-04T22:57:57.079Z,3.83
2024-02-04T23:00:29.899Z,6.40
2024-02-04T23:03:00.827Z,6.73
2024-02-04T23:05:29.215Z,6.17
2024-02-04T23:07:59.538Z,7.40
2024-02-04T23:10:28.726Z,6.97
2024-02-04T23:12:58.695Z,8.87
2024-02-04T23:15:27.176Z,4.30
2024-02-04T23:17:55.410Z,3.30
2024-02-04T23:20:25.164Z,9.63
2024-02-04T23:22:53.385Z,6.03
2024-02-04T23:25:25.473Z,7.60
2024-02-04T23:27:55.538Z,10.23
2024-02-04T23:30:23.979Z,10.50
2024-02-04T23:32:52.040Z,8.60
2024-02-04T23:35:20.473Z,5.70
2024-02-04T23:37:50.338Z,6.90
2024-02-04T23:40:18.998Z,11.33
2024-02-04T23:42:47.127Z,7.13
2024-02-04T23:45:15.234Z,7.20
2024-02-04T23:47:43.543Z,6.33
2024-02-04T23:50:12.465Z,12.27
2024-02-04T23:52:41.245Z,13.97
2024-02-04T23:55:11.213Z,6.60
2024-02-04T23:57:41.120Z,9.00
